createdAt,value
2018-03-15T00:01:07.267Z,11.90
2018-03-15T00:03:34.826Z,10.70
2018-03-15T00:06:02.463Z,11.37
2018-03-15T00:08:30.102Z,10.37
2018-03-15T00:10:57.614Z,12.47
2018-03-15T00:13:25.157Z,13.03
2018-03-15T00:15:53.502Z,13.07
2018-03-15T00:18:21.148Z,11.87
2018-03-15T00:20:48.691Z,13.13
2018-03-15T00:23:16.258Z,12.87
2018-03-15T00:25:43.821Z,12.10
2018-03-15T00:28:11.364Z,12.57
2018-03-15T00:30:38.962Z,14.27
2018-03-15T00:33:06.531Z,13.37
2018-03-15T00:35:34.079Z,13.43
2018-03-15T00:38:01.636Z,12.00
2018-03-15T00:40:29.202Z,15.50
2018-03-15T00:42:56.743Z,11.50
2018-03-15T00:45:24.320Z,12.77
2018-03-15T00:47:51.878Z,14.27
2018-03-15T00:50:19.410Z,15.27
2018-03-15T00:52:47.007Z,13.20
2018-03-15T00:55:14.562Z,15.17
2018-03-15T00:57:42.211Z,13.50
2018-03-15T01:00:09.798Z,14.33
2018-03-15T01:02:37.456Z,14.17
2018-03-15T01:05:05.014Z,13.33
2018-03-15T01:07:32.691Z,15.20
2018-03-15T01:10:00.258Z,13.37
2018-03-15T01:12:27.814Z,14.73
2018-03-15T01:14:55.458Z,15.13
2018-03-15T01:17:28.969Z,14.87
2018-03-15T01:19:56.545Z,13.53
2018-03-15T01:22:24.103Z,13.73
2018-03-15T01:24:51.641Z,14.37
2018-03-15T01:27:19.197Z,15.53
2018-03-15T01:29:46.754Z,14.13
2018-03-15T01:32:14.321Z,17.37
2018-03-15T01:34:41.998Z,16.90
2018-03-15T01:37:09.557Z,16.50
2018-03-15T01:39:37.213Z,12.70
2018-03-15T01:42:04.879Z,14.97
2018-03-15T01:44:32.436Z,15.80
2018-03-15T01:46:59.987Z,16.27
2018-03-15T01:49:27.554Z,14.87
2018-03-15T01:51:55.104Z,16.77
2018-03-15T01:54:22.660Z,15.43
2018-03-15T01:56:50.232Z,13.40
2018-03-15T01:59:18.613Z,16.90
2018-03-15T02:01:46.154Z,16.23
2018-03-15T02:04:13.747Z,16.23
2018-03-15T02:06:41.417Z,15.87
2018-03-15T02:09:09.087Z,15.87
2018-03-15T02:11:36.663Z,16.83
2018-03-15T02:14:04.213Z,16.33
2018-03-15T02:16:31.855Z,15.67
2018-03-15T02:18:59.420Z,14.57
2018-03-15T02:21:26.989Z,17.77
2018-03-15T02:23:54.534Z,16.33
2018-03-15T02:26:22.099Z,16.63
2018-03-15T02:28:49.654Z,16.90
2018-03-15T02:31:17.215Z,17.87
2018-03-15T02:33:44.789Z,17.53
2018-03-15T02:36:12.335Z,17.13
2018-03-15T02:38:39.886Z,16.83
2018-03-15T02:41:07.453Z,16.23
2018-03-15T02:43:35.012Z,19.43
2018-03-15T02:46:02.569Z,17.90
2018-03-15T02:48:30.139Z,17.73
2018-03-15T02:50:57.690Z,17.83
2018-03-15T02:53:25.242Z,19.77
2018-03-15T02:55:52.810Z,17.60
2018-03-15T02:58:20.370Z,15.60
2018-03-15T03:00:47.923Z,19.20
2018-03-15T03:03:15.511Z,15.33
2018-03-15T03:05:43.069Z,19.57
2018-03-15T03:08:10.730Z,18.83
2018-03-15T03:10:38.305Z,19.43
2018-03-15T03:13:05.852Z,17.17
2018-03-15T03:15:33.391Z,16.80
2018-03-15T03:18:00.980Z,18.00
2018-03-15T03:20:28.554Z,17.63
2018-03-15T03:22:56.198Z,18.13
2018-03-15T03:25:23.759Z,16.50
2018-03-15T03:27:51.300Z,16.47
2018-03-15T03:30:18.886Z,18.93
2018-03-15T03:32:46.542Z,16.77
2018-03-15T03:35:14.095Z,15.53
2018-03-15T03:37:41.672Z,14.00
2018-03-15T03:40:09.341Z,14.23
2018-03-15T03:42:36.897Z,16.87
2018-03-15T03:45:04.438Z,14.90
2018-03-15T03:47:32.014Z,14.73
2018-03-15T03:49:59.574Z,15.93
2018-03-15T03:52:27.127Z,15.13
2018-03-15T03:54:54.695Z,16.13
2018-03-15T03:57:22.269Z,13.03
2018-03-15T03:59:49.836Z,14.10
2018-03-15T04:02:17.407Z,13.53
2018-03-15T04:04:44.955Z,13.83
2018-03-15T04:07:12.624Z,13.80
2018-03-15T04:09:40.200Z,13.07
2018-03-15T04:12:08.526Z,14.97
2018-03-15T04:14:36.065Z,13.20
2018-03-15T04:17:03.646Z,13.83
2018-03-15T04:19:31.237Z,12.60
2018-03-15T04:21:58.902Z,12.77
2018-03-15T04:24:26.544Z,12.43
2018-03-15T04:26:54.095Z,13.67
2018-03-15T04:29:21.674Z,13.23
2018-03-15T04:31:49.245Z,13.47
2018-03-15T04:34:16.901Z,14.37
2018-03-15T04:36:44.462Z,14.07
2018-03-15T04:39:12.143Z,13.50
2018-03-15T04:41:39.793Z,12.77
2018-03-15T04:44:07.339Z,12.07
2018-03-15T04:46:34.914Z,10.43
2018-03-15T04:49:02.591Z,14.40
2018-03-15T04:51:30.228Z,13.00
2018-03-15T04:53:57.782Z,14.77
2018-03-15T04:56:25.342Z,12.10
2018-03-15T04:58:52.886Z,14.00
2018-03-15T05:01:20.461Z,15.70
2018-03-15T05:03:48.050Z,14.10
2018-03-15T05:06:15.603Z,13.17
2018-03-15T05:08:43.160Z,11.70
2018-03-15T05:11:10.723Z,12.13
2018-03-15T05:13:38.258Z,11.60
2018-03-15T05:16:05.825Z,12.63
2018-03-15T05:18:33.369Z,13.37
2018-03-15T05:21:00.979Z,12.10
2018-03-15T05:23:28.561Z,14.90
2018-03-15T05:25:56.878Z,11.63
2018-03-15T05:28:24.435Z,13.30
2018-03-15T05:30:52.046Z,14.30
2018-03-15T05:33:19.594Z,10.70
2018-03-15T05:35:47.151Z,13.37
2018-03-15T05:38:14.807Z,11.37
2018-03-15T05:40:42.368Z,14.63
2018-03-15T05:43:09.928Z,15.77
2018-03-15T05:45:37.602Z,13.67
2018-03-15T05:48:05.157Z,14.10
2018-03-15T05:50:32.711Z,14.30
2018-03-15T05:53:00.262Z,13.63
2018-03-15T05:55:27.821Z,13.17
2018-03-15T05:57:55.417Z,13.67
2018-03-15T06:00:23.009Z,15.07
2018-03-15T06:02:51.325Z,12.23
2018-03-15T06:05:18.927Z,14.07
2018-03-15T06:07:47.295Z,13.30
2018-03-15T06:10:14.842Z,15.43
2018-03-15T06:12:42.397Z,18.13
2018-03-15T06:15:10.082Z,16.60
2018-03-15T06:17:37.635Z,13.97
2018-03-15T06:20:05.173Z,13.53
2018-03-15T06:22:32.753Z,13.60
2018-03-15T06:25:00.300Z,13.93
2018-03-15T06:27:27.862Z,14.23
2018-03-15T06:29:55.536Z,13.10
2018-03-15T06:32:23.095Z,16.10
2018-03-15T06:34:50.626Z,15.23
2018-03-15T06:37:18.214Z,15.20
2018-03-15T06:39:45.760Z,15.20
2018-03-15T06:42:13.310Z,15.63
2018-03-15T06:44:40.879Z,14.70
2018-03-15T06:47:08.425Z,12.60
2018-03-15T06:49:35.984Z,12.70
2018-03-15T06:52:03.585Z,12.40
2018-03-15T06:54:31.164Z,15.30
2018-03-15T06:56:58.700Z,15.30
2018-03-15T06:59:26.368Z,13.43
2018-03-15T07:01:53.929Z,12.60
2018-03-15T07:04:21.480Z,14.87
2018-03-15T07:06:49.159Z,14.63
2018-03-15T07:09:16.825Z,12.67
2018-03-15T07:11:44.488Z,15.63
2018-03-15T07:14:12.047Z,14.50
2018-03-15T07:16:39.729Z,12.10
2018-03-15T07:19:07.264Z,13.80
2018-03-15T07:21:34.935Z,13.17
2018-03-15T07:24:02.569Z,10.63
2018-03-15T07:26:30.100Z,12.60
2018-03-15T07:28:58.431Z,11.07
2018-03-15T07:31:25.987Z,12.23
2018-03-15T07:33:53.563Z,10.57
2018-03-15T07:36:21.226Z,12.37
2018-03-15T07:38:48.770Z,12.17
2018-03-15T07:41:16.331Z,12.50
2018-03-15T07:43:43.995Z,10.83
2018-03-15T07:46:11.555Z,10.40
2018-03-15T07:48:39.097Z,11.57
2018-03-15T07:51:06.676Z,10.90
2018-03-15T07:53:34.231Z,11.63
2018-03-15T07:56:01.799Z,11.23
2018-03-15T07:58:29.364Z,13.40
2018-03-15T08:00:56.894Z,10.80
2018-03-15T08:03:24.487Z,9.50
2018-03-15T08:05:52.044Z,13.17
2018-03-15T08:08:19.611Z,13.10
2018-03-15T08:10:47.283Z,13.83
2018-03-15T08:13:14.930Z,11.47
2018-03-15T08:15:42.501Z,12.23
2018-03-15T08:18:10.161Z,10.97
2018-03-15T08:20:37.836Z,15.87
2018-03-15T08:23:05.397Z,12.60
2018-03-15T08:25:32.946Z,11.03
2018-03-15T08:28:00.607Z,15.30
2018-03-15T08:30:28.169Z,12.43
2018-03-15T08:32:55.712Z,11.50
2018-03-15T08:35:23.302Z,11.87
2018-03-15T08:37:50.965Z,12.37
2018-03-15T08:40:18.503Z,8.93
2018-03-15T08:42:46.087Z,10.33
2018-03-15T08:45:13.663Z,9.97
2018-03-15T08:47:41.986Z,10.17
2018-03-15T08:50:09.571Z,10.53
2018-03-15T08:52:37.143Z,9.37
2018-03-15T08:55:04.691Z,11.50
2018-03-15T08:57:32.261Z,9.33
2018-03-15T08:59:59.810Z,8.63
2018-03-15T09:02:27.380Z,8.70
2018-03-15T09:04:55.059Z,9.90
2018-03-15T09:07:22.641Z,9.93
2018-03-15T09:09:50.159Z,9.47
2018-03-15T09:12:17.727Z,10.13
2018-03-15T09:14:45.278Z,9.93
2018-03-15T09:17:12.929Z,10.37
2018-03-15T09:19:40.497Z,11.17
2018-03-15T09:22:08.063Z,8.80
2018-03-15T09:24:35.627Z,12.07
2018-03-15T09:27:03.252Z,10.90
2018-03-15T09:29:30.802Z,9.63
2018-03-15T09:31:58.361Z,9.43
2018-03-15T09:34:26.009Z,10.27
2018-03-15T09:36:53.650Z,10.20
2018-03-15T09:39:21.225Z,10.77
2018-03-15T09:41:49.694Z,10.40
2018-03-15T09:44:17.266Z,9.10
2018-03-15T09:46:45.600Z,11.40
2018-03-15T09:49:13.299Z,10.97
2018-03-15T09:51:40.858Z,10.20
2018-03-15T09:54:09.229Z,9.57
2018-03-15T09:56:36.832Z,9.63
2018-03-15T09:59:04.450Z,12.33
2018-03-15T10:01:33.536Z,9.77
2018-03-15T10:04:01.113Z,11.53
2018-03-15T10:06:28.683Z,12.37
2018-03-15T10:08:56.247Z,10.20
2018-03-15T10:11:24.602Z,12.17
2018-03-15T10:13:52.149Z,9.90
2018-03-15T10:16:19.750Z,10.20
2018-03-15T10:18:48.097Z,10.23
2018-03-15T10:21:15.676Z,9.90
2018-03-15T10:23:43.239Z,11.03
2018-03-15T10:26:10.830Z,11.13
2018-03-15T10:28:39.159Z,12.03
2018-03-15T10:31:06.732Z,10.83
2018-03-15T10:33:38.115Z,13.17
2018-03-15T10:36:06.527Z,9.27
2018-03-15T10:38:34.210Z,9.23
2018-03-15T10:41:01.801Z,11.27
2018-03-15T10:43:29.461Z,11.70
2018-03-15T10:45:57.806Z,9.47
2018-03-15T10:48:25.405Z,11.73
2018-03-15T10:50:53.140Z,9.17
2018-03-15T10:53:20.708Z,10.77
2018-03-15T10:55:48.297Z,8.73
2018-03-15T10:58:15.876Z,9.40
2018-03-15T11:00:49.788Z,12.47
2018-03-15T11:03:18.135Z,9.70
2018-03-15T11:05:48.257Z,11.53
2018-03-15T11:08:22.338Z,12.13
2018-03-15T11:10:49.940Z,9.17
2018-03-15T11:13:17.517Z,10.77
2018-03-15T11:15:45.863Z,11.40
2018-03-15T11:18:13.435Z,9.60
2018-03-15T11:20:42.512Z,9.77
2018-03-15T11:23:10.104Z,10.50
2018-03-15T11:25:37.752Z,11.03
2018-03-15T11:28:05.337Z,9.33
2018-03-15T11:30:33.707Z,8.80
2018-03-15T11:33:01.283Z,9.33
2018-03-15T11:35:29.628Z,10.27
2018-03-15T11:37:57.203Z,8.87
2018-03-15T11:40:24.784Z,9.77
2018-03-15T11:42:57.930Z,8.17
2018-03-15T11:45:25.495Z,8.93
2018-03-15T11:47:53.069Z,7.80
2018-03-15T11:50:20.695Z,10.53
2018-03-15T11:52:48.275Z,9.13
2018-03-15T11:55:15.853Z,9.20
2018-03-15T11:57:43.435Z,8.13
2018-03-15T12:00:11.786Z,8.43
2018-03-15T12:02:39.366Z,8.07
2018-03-15T12:05:08.451Z,9.57
2018-03-15T12:07:36.188Z,8.77
2018-03-15T12:10:04.478Z,7.43
2018-03-15T12:12:32.089Z,7.63
2018-03-15T12:15:00.420Z,6.60
2018-03-15T12:17:28.002Z,7.37
2018-03-15T12:19:55.596Z,7.03
2018-03-15T12:22:23.939Z,6.90
2018-03-15T12:24:51.485Z,7.43
2018-03-15T12:27:19.074Z,7.10
2018-03-15T12:29:46.721Z,6.50
2018-03-15T12:32:14.254Z,7.50
2018-03-15T12:34:41.800Z,7.67
2018-03-15T12:37:10.132Z,9.37
2018-03-15T12:39:37.807Z,10.17
2018-03-15T12:42:05.371Z,11.33
2018-03-15T12:44:32.921Z,9.63
2018-03-15T12:47:00.565Z,9.77
2018-03-15T12:49:28.127Z,10.60
2018-03-15T12:51:55.692Z,11.33
2018-03-15T12:54:23.249Z,10.67
2018-03-15T12:56:50.825Z,11.63
2018-03-15T12:59:18.388Z,10.60
2018-03-15T13:01:46.037Z,10.70
2018-03-15T13:04:13.610Z,10.90
2018-03-15T13:06:41.263Z,11.40
2018-03-15T13:09:08.933Z,12.50
2018-03-15T13:11:36.606Z,13.73
2018-03-15T13:14:04.189Z,13.77
2018-03-15T13:16:32.537Z,13.40
2018-03-15T13:19:00.193Z,11.70
2018-03-15T13:21:27.771Z,11.70
2018-03-15T13:23:55.423Z,12.50
2018-03-15T13:26:22.987Z,15.13
2018-03-15T13:28:50.543Z,12.73
2018-03-15T13:31:18.098Z,12.60
2018-03-15T13:33:45.770Z,14.70
2018-03-15T13:36:13.332Z,12.90
2018-03-15T13:38:40.887Z,13.43
2018-03-15T13:41:08.548Z,13.83
2018-03-15T13:43:36.123Z,13.63
2018-03-15T13:46:03.752Z,18.27
2018-03-15T13:48:31.346Z,13.93
2018-03-15T13:50:58.904Z,14.40
2018-03-15T13:53:26.469Z,15.43
2018-03-15T13:55:54.028Z,11.77
2018-03-15T13:58:21.601Z,12.67
2018-03-15T14:00:49.169Z,14.70
2018-03-15T14:03:16.754Z,14.63
2018-03-15T14:05:45.077Z,13.00
2018-03-15T14:08:12.636Z,13.47
2018-03-15T14:10:40.215Z,12.20
2018-03-15T14:13:07.865Z,12.63
2018-03-15T14:15:35.429Z,12.17
2018-03-15T14:18:03.081Z,13.07
2018-03-15T14:20:30.835Z,13.60
2018-03-15T14:22:58.420Z,12.57
2018-03-15T14:25:26.205Z,13.90
2018-03-15T14:27:53.848Z,14.97
2018-03-15T14:30:21.510Z,13.20
2018-03-15T14:32:49.235Z,17.90
2018-03-15T14:35:16.800Z,14.70
2018-03-15T14:37:44.358Z,16.87
2018-03-15T14:40:11.968Z,14.97
2018-03-15T14:42:39.619Z,17.60
2018-03-15T14:45:07.187Z,20.47
2018-03-15T14:47:34.767Z,18.20
2018-03-15T14:50:02.309Z,18.10
2018-03-15T14:52:29.857Z,18.97
2018-03-15T14:54:57.490Z,18.37
2018-03-15T14:57:25.058Z,16.17
2018-03-15T14:59:52.595Z,16.80
2018-03-15T15:02:21.037Z,14.27
2018-03-15T15:04:48.707Z,15.63
2018-03-15T15:07:16.259Z,16.37
2018-03-15T15:09:43.840Z,15.90
2018-03-15T15:12:11.539Z,15.80
2018-03-15T15:14:39.106Z,15.40
2018-03-15T15:17:06.667Z,15.50
2018-03-15T15:19:35.571Z,15.87
2018-03-15T15:22:03.164Z,15.40
2018-03-15T15:24:30.826Z,15.60
2018-03-15T15:26:58.377Z,16.37
2018-03-15T15:29:26.027Z,16.40
2018-03-15T15:31:53.699Z,15.40
2018-03-15T15:34:21.271Z,17.80
2018-03-15T15:36:48.842Z,17.23
2018-03-15T15:39:16.418Z,17.27
2018-03-15T15:41:44.772Z,16.40
2018-03-15T15:44:13.174Z,15.30
2018-03-15T15:46:41.258Z,15.67
2018-03-15T15:49:09.958Z,17.83
2018-03-15T15:51:37.523Z,17.80
2018-03-15T15:54:05.130Z,16.07
2018-03-15T15:56:32.691Z,16.80
2018-03-15T15:59:00.352Z,18.37
2018-03-15T16:01:28.023Z,19.77
2018-03-15T16:03:55.573Z,20.63
2018-03-15T16:06:23.161Z,16.77
2018-03-15T16:08:50.798Z,20.43
2018-03-15T16:11:18.358Z,17.37
2018-03-15T16:13:46.003Z,17.33
2018-03-15T16:16:13.677Z,19.97
2018-03-15T16:18:41.260Z,21.20
2018-03-15T16:21:09.634Z,21.90
2018-03-15T16:23:37.215Z,19.93
2018-03-15T16:26:05.525Z,22.33
2018-03-15T16:28:33.128Z,22.50
2018-03-15T16:31:00.785Z,21.27
2018-03-15T16:33:28.329Z,21.47
2018-03-15T16:35:55.912Z,23.67
2018-03-15T16:38:23.507Z,21.93
2018-03-15T16:40:51.839Z,23.20
2018-03-15T16:43:19.401Z,21.10
2018-03-15T16:45:47.081Z,22.70
2018-03-15T16:48:14.843Z,22.00
2018-03-15T16:50:42.400Z,22.53
2018-03-15T16:53:10.061Z,23.70
2018-03-15T16:55:37.728Z,24.37
2018-03-15T16:58:05.287Z,25.93
2018-03-15T17:00:32.944Z,20.30
2018-03-15T17:03:00.521Z,24.43
2018-03-15T17:05:28.128Z,22.67
2018-03-15T17:07:55.706Z,21.67
2018-03-15T17:10:23.296Z,20.93
2018-03-15T17:12:50.908Z,21.93
2018-03-15T17:15:18.487Z,21.63
2018-03-15T17:17:46.051Z,22.90
2018-03-15T17:20:13.629Z,23.10
2018-03-15T17:22:41.286Z,23.37
2018-03-15T17:25:08.843Z,20.83
2018-03-15T17:27:36.437Z,24.97
2018-03-15T17:30:04.075Z,23.17
2018-03-15T17:32:31.627Z,24.90
2018-03-15T17:34:59.196Z,25.93
2018-03-15T17:37:26.882Z,19.03
2018-03-15T17:39:54.422Z,23.87
2018-03-15T17:42:21.971Z,26.77
2018-03-15T17:44:49.544Z,23.80
2018-03-15T17:47:17.198Z,21.80
2018-03-15T17:49:44.748Z,23.83
2018-03-15T17:52:12.335Z,23.90
2018-03-15T17:54:40.009Z,27.00
2018-03-15T17:57:07.723Z,22.23
2018-03-15T17:59:35.297Z,23.83
2018-03-15T18:02:02.862Z,22.03
2018-03-15T18:04:30.443Z,25.60
2018-03-15T18:06:58.901Z,24.37
2018-03-15T18:09:26.482Z,22.13
2018-03-15T18:11:54.031Z,24.63
2018-03-15T18:14:21.699Z,25.40
2018-03-15T18:16:49.289Z,23.47
2018-03-15T18:19:17.600Z,22.73
2018-03-15T18:21:45.162Z,21.73
2018-03-15T18:24:12.725Z,19.97
2018-03-15T18:26:40.276Z,20.90
2018-03-15T18:29:07.852Z,21.53
2018-03-15T18:31:35.422Z,19.33
2018-03-15T18:34:02.988Z,19.93
2018-03-15T18:36:30.563Z,18.40
2018-03-15T18:38:58.122Z,18.63
2018-03-15T18:41:25.689Z,21.97
2018-03-15T18:43:53.274Z,19.00
2018-03-15T18:46:21.622Z,22.37
2018-03-15T18:48:49.281Z,20.03
2018-03-15T18:51:16.851Z,20.33
2018-03-15T18:53:44.452Z,21.00
2018-03-15T18:56:11.963Z,21.37
2018-03-15T18:58:39.541Z,23.80
2018-03-15T19:01:12.614Z,22.70
2018-03-15T19:03:35.441Z,20.17
2018-03-15T19:06:03.022Z,23.00
2018-03-15T19:08:30.680Z,25.67
2018-03-15T19:10:58.263Z,24.00
2018-03-15T19:13:26.775Z,23.53
2018-03-15T19:15:55.096Z,25.37
2018-03-15T19:18:22.650Z,21.33
2018-03-15T19:20:50.216Z,21.40
2018-03-15T19:23:17.766Z,21.93
2018-03-15T19:25:45.337Z,22.43
2018-03-15T19:28:12.908Z,23.43
2018-03-15T19:30:40.480Z,22.73
2018-03-15T19:33:08.935Z,24.13
2018-03-15T19:35:36.509Z,23.27
2018-03-15T19:38:04.091Z,20.43
2018-03-15T19:40:31.633Z,23.60
2018-03-15T19:42:59.255Z,23.00
2018-03-15T19:45:26.821Z,25.27
2018-03-15T19:47:54.428Z,26.67
2018-03-15T19:50:22.042Z,22.73
2018-03-15T19:52:49.646Z,23.60
2018-03-15T19:55:17.464Z,24.97
2018-03-15T19:57:45.077Z,27.70
2018-03-15T20:00:12.686Z,26.90
2018-03-15T20:02:40.268Z,26.80
2018-03-15T20:05:07.870Z,22.83
2018-03-15T20:07:35.440Z,24.03
2018-03-15T20:10:03.759Z,25.50
2018-03-15T20:12:31.325Z,29.13
2018-03-15T20:14:58.870Z,22.23
2018-03-15T20:17:26.426Z,26.47
2018-03-15T20:19:53.991Z,24.77
2018-03-15T20:22:27.314Z,25.00
2018-03-15T20:24:54.980Z,25.70
2018-03-15T20:27:28.198Z,26.87
2018-03-15T20:29:55.792Z,27.27
2018-03-15T20:32:29.006Z,27.57
2018-03-15T20:34:56.577Z,26.47
2018-03-15T20:37:24.136Z,30.13
2018-03-15T20:39:57.360Z,25.83
2018-03-15T20:42:25.756Z,31.90
2018-03-15T20:44:55.628Z,28.67
2018-03-15T20:47:29.140Z,29.73
2018-03-15T20:49:56.696Z,26.90
2018-03-15T20:52:24.369Z,28.87
2018-03-15T20:54:51.931Z,27.50
2018-03-15T20:57:19.483Z,28.37
2018-03-15T20:59:47.146Z,27.53
2018-03-15T21:02:14.734Z,30.13
2018-03-15T21:04:43.062Z,31.60
2018-03-15T21:07:10.620Z,31.87
2018-03-15T21:09:38.201Z,31.63
2018-03-15T21:12:05.741Z,36.10
2018-03-15T21:14:33.297Z,30.97
2018-03-15T21:17:00.882Z,28.73
2018-03-15T21:19:28.444Z,30.67
2018-03-15T21:21:56.004Z,29.37
2018-03-15T21:24:23.559Z,31.27
2018-03-15T21:26:51.197Z,31.47
2018-03-15T21:29:19.501Z,35.17
2018-03-15T21:31:47.073Z,29.53
2018-03-15T21:34:14.618Z,31.43
2018-03-15T21:36:42.176Z,34.30
2018-03-15T21:39:09.837Z,32.43
2018-03-15T21:41:37.390Z,35.77
2018-03-15T21:44:04.975Z,29.43
2018-03-15T21:46:32.537Z,30.80
2018-03-15T21:49:00.165Z,32.20
2018-03-15T21:51:27.750Z,32.77
2018-03-15T21:53:55.312Z,36.47
2018-03-15T21:56:22.855Z,32.07
2018-03-15T21:58:50.430Z,36.10
2018-03-15T22:01:18.071Z,34.30
2018-03-15T22:03:45.650Z,36.23
2018-03-15T22:06:13.193Z,35.83
2018-03-15T22:08:40.761Z,36.67
2018-03-15T22:11:08.320Z,33.20
2018-03-15T22:13:35.871Z,35.57
2018-03-15T22:16:03.433Z,35.27
2018-03-15T22:18:30.983Z,37.97
2018-03-15T22:20:58.560Z,34.20
2018-03-15T22:23:26.149Z,34.57
2018-03-15T22:25:53.708Z,34.10
2018-03-15T22:28:21.362Z,32.43
2018-03-15T22:30:48.923Z,34.80
2018-03-15T22:33:16.464Z,35.53
2018-03-15T22:35:44.028Z,33.50
2018-03-15T22:38:11.706Z,34.83
2018-03-15T22:40:39.281Z,36.77
2018-03-15T22:43:06.942Z,32.67
2018-03-15T22:45:34.599Z,34.37
2018-03-15T22:48:02.163Z,33.63
2018-03-15T22:50:29.800Z,34.27
2018-03-15T22:52:57.397Z,34.00
2018-03-15T22:55:24.957Z,33.70
2018-03-15T22:57:52.689Z,34.77
2018-03-15T23:00:20.255Z,36.37
2018-03-15T23:02:47.808Z,38.00
2018-03-15T23:05:15.388Z,38.23
2018-03-15T23:07:42.948Z,36.97
2018-03-15T23:10:10.512Z,35.73
2018-03-15T23:12:38.044Z,34.73
2018-03-15T23:15:05.601Z,37.60
2018-03-15T23:17:33.159Z,36.77
2018-03-15T23:20:00.751Z,36.43
2018-03-15T23:22:28.334Z,35.03
2018-03-15T23:24:55.984Z,34.83
2018-03-15T23:27:23.528Z,34.47
2018-03-15T23:29:51.098Z,34.53
2018-03-15T23:32:18.649Z,37.27
2018-03-15T23:34:46.834Z,38.23
2018-03-15T23:37:14.507Z,36.13
2018-03-15T23:39:42.080Z,33.57
2018-03-15T23:42:09.624Z,36.43
2018-03-15T23:44:37.282Z,36.83
2018-03-15T23:47:04.852Z,34.83
2018-03-15T23:49:32.399Z,33.40
2018-03-15T23:52:00.069Z,35.37
2018-03-15T23:54:27.629Z,36.77
2018-03-15T23:56:55.188Z,38.40
2018-03-15T23:59:22.749Z,37.50
